createdAt,value
2018-05-18T00:01:20.196Z,5.83
2018-05-18T00:03:47.890Z,5.57
2018-05-18T00:06:16.173Z,4.80
2018-05-18T00:08:44.438Z,5.37
2018-05-18T00:11:11.951Z,5.50
2018-05-18T00:13:39.484Z,6.20
2018-05-18T00:16:07.731Z,6.60
2018-05-18T00:18:36.060Z,6.00
2018-05-18T00:21:04.538Z,6.50
2018-05-18T00:23:32.802Z,4.57
2018-05-18T00:26:01.117Z,5.50
2018-05-18T00:28:28.650Z,7.07
2018-05-18T00:30:56.144Z,5.10
2018-05-18T00:33:23.666Z,5.80
2018-05-18T00:35:51.144Z,6.00
2018-05-18T00:38:19.979Z,5.63
2018-05-18T00:40:47.986Z,5.60
2018-05-18T00:43:15.502Z,5.90
2018-05-18T00:45:43.295Z,6.93
2018-05-18T00:48:10.813Z,5.83
2018-05-18T00:50:38.357Z,5.93
2018-05-18T00:53:05.857Z,6.17
2018-05-18T00:55:42.049Z,5.90
2018-05-18T00:58:10.156Z,5.40
2018-05-18T01:00:39.156Z,7.20
2018-05-18T01:03:07.512Z,6.47
2018-05-18T01:05:35.722Z,7.60
2018-05-18T01:08:03.212Z,6.20
2018-05-18T01:10:30.776Z,6.67
2018-05-18T01:12:58.334Z,6.13
2018-05-18T01:15:27.634Z,5.93
2018-05-18T01:17:56.030Z,6.97
2018-05-18T01:20:24.188Z,6.87
2018-05-18T01:22:52.489Z,7.03
2018-05-18T01:25:20.062Z,7.60
2018-05-18T01:27:47.608Z,6.50
2018-05-18T01:30:15.926Z,6.30
2018-05-18T01:32:43.441Z,5.50
2018-05-18T01:35:12.106Z,7.53
2018-05-18T01:37:39.616Z,6.03
2018-05-18T01:40:07.972Z,5.77
2018-05-18T01:42:35.478Z,5.77
2018-05-18T01:45:03.030Z,6.70
2018-05-18T01:47:30.589Z,6.37
2018-05-18T01:49:58.962Z,6.90
2018-05-18T01:52:26.482Z,5.70
2018-05-18T01:54:54.077Z,4.70
2018-05-18T01:57:21.902Z,6.73
2018-05-18T01:59:49.427Z,6.07
2018-05-18T02:02:18.328Z,6.63
2018-05-18T02:04:45.896Z,5.70
2018-05-18T02:07:14.513Z,6.30
2018-05-18T02:09:42.156Z,6.97
2018-05-18T02:12:09.718Z,7.70
2018-05-18T02:14:37.208Z,6.80
2018-05-18T02:17:04.865Z,6.90
2018-05-18T02:19:32.388Z,6.27
2018-05-18T02:22:00.704Z,6.80
2018-05-18T02:24:28.258Z,7.30
2018-05-18T02:26:55.754Z,6.50
2018-05-18T02:29:23.292Z,5.20
2018-05-18T02:31:52.276Z,5.60
2018-05-18T02:34:19.802Z,7.03
2018-05-18T02:36:47.294Z,5.80
2018-05-18T02:39:15.571Z,6.03
2018-05-18T02:41:43.846Z,6.60
2018-05-18T02:44:11.451Z,6.47
2018-05-18T02:46:39.365Z,6.50
2018-05-18T02:49:08.026Z,5.50
2018-05-18T02:51:35.525Z,7.00
2018-05-18T02:54:03.038Z,6.40
2018-05-18T02:56:30.570Z,6.00
2018-05-18T02:58:58.203Z,6.17
2018-05-18T03:01:26.574Z,6.70
2018-05-18T03:03:55.268Z,6.67
2018-05-18T03:06:22.857Z,6.50
2018-05-18T03:08:50.446Z,6.30
2018-05-18T03:11:17.976Z,5.70
2018-05-18T03:13:46.718Z,6.67
2018-05-18T03:16:14.631Z,6.37
2018-05-18T03:18:42.802Z,6.67
2018-05-18T03:21:10.364Z,6.50
2018-05-18T03:23:37.895Z,6.47
2018-05-18T03:26:06.070Z,6.40
2018-05-18T03:28:34.054Z,6.83
2018-05-18T03:31:02.420Z,6.37
2018-05-18T03:33:29.950Z,6.90
2018-05-18T03:35:58.298Z,5.87
2018-05-18T03:38:25.790Z,6.23
2018-05-18T03:40:54.744Z,7.03
2018-05-18T03:43:24.068Z,6.50
2018-05-18T03:45:51.580Z,6.70
2018-05-18T03:48:19.872Z,6.60
2018-05-18T03:50:47.442Z,6.13
2018-05-18T03:53:14.952Z,8.10
2018-05-18T03:55:43.028Z,5.90
2018-05-18T03:58:10.636Z,6.33
2018-05-18T04:00:40.282Z,7.10
2018-05-18T04:03:19.878Z,7.17
2018-05-18T04:05:59.992Z,6.40
2018-05-18T04:08:52.048Z,7.27
2018-05-18T04:11:20.337Z,6.30
2018-05-18T04:13:48.738Z,6.70
2018-05-18T04:16:16.611Z,8.67
2018-05-18T04:18:44.106Z,7.43
2018-05-18T04:21:11.612Z,6.63
2018-05-18T04:23:39.926Z,5.93
2018-05-18T04:26:07.488Z,6.63
2018-05-18T04:28:35.018Z,6.40
2018-05-18T04:31:02.908Z,6.67
2018-05-18T04:33:30.934Z,7.10
2018-05-18T04:35:58.447Z,6.30
2018-05-18T04:38:25.958Z,6.80
2018-05-18T04:40:53.514Z,6.60
2018-05-18T04:43:21.846Z,6.30
2018-05-18T04:45:49.336Z,7.07
2018-05-18T04:48:17.077Z,6.87
2018-05-18T04:50:45.380Z,6.40
2018-05-18T04:53:12.912Z,6.37
2018-05-18T04:55:40.417Z,7.00
2018-05-18T04:58:07.908Z,7.07
2018-05-18T05:00:35.449Z,7.00
2018-05-18T05:03:02.997Z,8.00
2018-05-18T05:05:30.591Z,7.50
2018-05-18T05:07:58.388Z,7.70
2018-05-18T05:10:26.022Z,6.67
2018-05-18T05:12:53.755Z,7.90
2018-05-18T05:15:22.147Z,8.23
2018-05-18T05:17:49.666Z,8.30
2018-05-18T05:20:17.180Z,7.80
2018-05-18T05:22:44.670Z,7.67
2018-05-18T05:25:12.427Z,7.30
2018-05-18T05:27:39.982Z,8.50
2018-05-18T05:30:07.650Z,7.30
2018-05-18T05:32:35.278Z,8.47
2018-05-18T05:35:04.886Z,7.83
2018-05-18T05:37:32.521Z,6.67
2018-05-18T05:40:00.014Z,7.73
2018-05-18T05:42:27.676Z,7.83
2018-05-18T05:44:55.435Z,7.13
2018-05-18T05:47:24.448Z,7.43
2018-05-18T05:49:52.774Z,8.70
2018-05-18T05:52:20.290Z,9.10
2018-05-18T05:54:48.602Z,6.57
2018-05-18T05:57:16.102Z,7.60
2018-05-18T05:59:43.616Z,7.63
2018-05-18T06:02:12.247Z,7.60
2018-05-18T06:04:39.760Z,8.67
2018-05-18T06:07:08.037Z,8.33
2018-05-18T06:09:36.292Z,8.97
2018-05-18T06:12:03.878Z,7.70
2018-05-18T06:14:31.412Z,7.17
2018-05-18T06:16:59.634Z,8.57
2018-05-18T06:19:27.932Z,8.23
2018-05-18T06:21:55.978Z,8.60
2018-05-18T06:24:24.636Z,8.77
2018-05-18T06:26:52.640Z,6.60
2018-05-18T06:29:21.168Z,9.07
2018-05-18T06:31:48.687Z,8.57
2018-05-18T06:34:16.206Z,7.73
2018-05-18T06:36:43.950Z,8.07
2018-05-18T06:39:11.472Z,7.60
2018-05-18T06:41:38.992Z,8.30
2018-05-18T06:44:06.525Z,7.80
2018-05-18T06:46:34.179Z,9.07
2018-05-18T06:49:03.151Z,9.03
2018-05-18T06:51:30.709Z,9.50
2018-05-18T06:53:58.192Z,9.00
2018-05-18T06:56:27.234Z,10.60
2018-05-18T06:58:54.746Z,9.47
2018-05-18T07:01:22.267Z,9.70
2018-05-18T07:03:49.784Z,8.43
2018-05-18T07:06:17.278Z,9.80
2018-05-18T07:08:44.797Z,8.73
2018-05-18T07:11:12.402Z,9.27
2018-05-18T07:13:40.674Z,9.00
2018-05-18T07:16:08.982Z,9.43
2018-05-18T07:18:36.476Z,7.93
2018-05-18T07:21:04.012Z,8.77
2018-05-18T07:23:31.539Z,7.90
2018-05-18T07:26:00.610Z,7.43
2018-05-18T07:28:28.126Z,8.00
2018-05-18T07:30:55.668Z,8.00
2018-05-18T07:33:23.938Z,9.10
2018-05-18T07:35:52.240Z,8.83
2018-05-18T07:38:20.646Z,9.07
2018-05-18T07:40:49.004Z,8.63
2018-05-18T07:43:16.561Z,9.63
2018-05-18T07:45:45.214Z,7.97
2018-05-18T07:48:12.749Z,8.73
2018-05-18T07:50:40.263Z,10.20
2018-05-18T07:53:07.977Z,9.33
2018-05-18T07:55:35.546Z,9.40
2018-05-18T07:58:03.077Z,8.20
2018-05-18T08:00:31.356Z,6.87
2018-05-18T08:02:59.634Z,8.70
2018-05-18T08:05:27.910Z,8.77
2018-05-18T08:07:56.356Z,8.90
2018-05-18T08:10:23.917Z,7.47
2018-05-18T08:12:51.576Z,7.10
2018-05-18T08:15:19.136Z,6.90
2018-05-18T08:17:46.804Z,6.50
2018-05-18T08:20:14.303Z,6.30
2018-05-18T08:22:41.806Z,6.73
2018-05-18T08:25:10.090Z,8.27
2018-05-18T08:27:37.679Z,7.97
2018-05-18T08:30:06.002Z,7.50
2018-05-18T08:32:33.518Z,6.80
2018-05-18T08:35:01.053Z,6.20
2018-05-18T08:37:29.316Z,6.00
2018-05-18T08:39:56.826Z,6.40
2018-05-18T08:42:24.484Z,6.33
2018-05-18T08:44:51.981Z,5.60
2018-05-18T08:47:19.480Z,7.13
2018-05-18T08:49:48.082Z,7.27
2018-05-18T08:52:16.490Z,6.43
2018-05-18T08:54:43.997Z,7.10
2018-05-18T08:57:12.064Z,7.40
2018-05-18T08:59:39.590Z,6.37
2018-05-18T09:02:07.148Z,7.60
2018-05-18T09:04:34.786Z,6.70
2018-05-18T09:07:03.082Z,7.03
2018-05-18T09:09:30.608Z,6.83
2018-05-18T09:11:58.122Z,6.50
2018-05-18T09:14:26.826Z,6.43
2018-05-18T09:16:54.318Z,6.47
2018-05-18T09:19:22.660Z,7.53
2018-05-18T09:21:50.149Z,6.43
2018-05-18T09:24:17.685Z,9.07
2018-05-18T09:26:45.191Z,9.13
2018-05-18T09:29:13.301Z,7.80
2018-05-18T09:31:41.573Z,8.70
2018-05-18T09:34:09.419Z,8.17
2018-05-18T09:36:36.985Z,7.10
2018-05-18T09:39:04.603Z,6.77
2018-05-18T09:41:32.266Z,6.10
2018-05-18T09:43:59.849Z,6.77
2018-05-18T09:46:27.367Z,7.70
2018-05-18T09:48:56.496Z,8.23
2018-05-18T09:51:23.998Z,8.20
2018-05-18T09:53:52.306Z,8.00
2018-05-18T09:56:19.802Z,8.20
2018-05-18T09:58:47.305Z,9.17
2018-05-18T10:01:14.873Z,9.07
2018-05-18T10:03:42.395Z,9.83
2018-05-18T10:06:09.968Z,7.53
2018-05-18T10:08:37.470Z,8.43
2018-05-18T10:11:05.030Z,7.90
2018-05-18T10:13:32.569Z,7.70
2018-05-18T10:16:00.128Z,7.50
2018-05-18T10:18:27.651Z,6.97
2018-05-18T10:20:55.906Z,6.47
2018-05-18T10:23:23.849Z,7.60
2018-05-18T10:25:51.412Z,6.10
2018-05-18T10:28:19.288Z,6.40
2018-05-18T10:30:46.778Z,8.17
2018-05-18T10:33:14.888Z,8.27
2018-05-18T10:35:43.202Z,7.40
2018-05-18T10:38:11.764Z,8.07
2018-05-18T10:40:40.057Z,7.20
2018-05-18T10:43:07.564Z,7.60
2018-05-18T10:45:35.127Z,9.20
2018-05-18T10:48:02.644Z,7.73
2018-05-18T10:50:30.946Z,6.30
2018-05-18T10:52:58.517Z,6.33
2018-05-18T10:55:25.954Z,7.00
2018-05-18T10:57:53.554Z,5.70
2018-05-18T11:00:21.070Z,6.60
2018-05-18T11:02:49.386Z,6.37
2018-05-18T11:05:16.911Z,5.90
2018-05-18T11:07:45.178Z,5.97
2018-05-18T11:10:13.502Z,6.53
2018-05-18T11:12:41.364Z,5.97
2018-05-18T11:15:09.636Z,6.40
2018-05-18T11:17:37.514Z,6.50
2018-05-18T11:20:05.070Z,7.20
2018-05-18T11:22:32.724Z,6.00
2018-05-18T11:25:01.001Z,5.73
2018-05-18T11:27:29.294Z,6.13
2018-05-18T11:29:57.604Z,6.77
2018-05-18T11:32:25.125Z,6.53
2018-05-18T11:34:52.676Z,6.43
2018-05-18T11:37:20.800Z,6.20
2018-05-18T11:39:48.372Z,6.60
2018-05-18T11:42:15.940Z,6.80
2018-05-18T11:44:43.484Z,6.60
2018-05-18T11:47:11.779Z,5.70
2018-05-18T11:49:40.253Z,6.50
2018-05-18T11:52:08.548Z,6.90
2018-05-18T11:54:36.166Z,7.40
2018-05-18T11:57:03.619Z,7.63
2018-05-18T11:59:31.149Z,6.77
2018-05-18T12:01:58.679Z,8.10
2018-05-18T12:04:26.974Z,6.27
2018-05-18T12:06:54.644Z,8.10
2018-05-18T12:09:22.209Z,7.10
2018-05-18T12:11:49.717Z,6.10
2018-05-18T12:14:17.326Z,7.70
2018-05-18T12:16:45.607Z,7.17
2018-05-18T12:19:14.006Z,7.27
2018-05-18T12:21:41.556Z,6.83
2018-05-18T12:24:10.531Z,5.87
2018-05-18T12:26:38.843Z,7.07
2018-05-18T12:29:06.719Z,6.60
2018-05-18T12:31:34.352Z,7.80
2018-05-18T12:34:01.814Z,7.73
2018-05-18T12:36:29.339Z,7.47
2018-05-18T12:38:56.855Z,6.97
2018-05-18T12:41:25.179Z,8.00
2018-05-18T12:43:52.719Z,7.37
2018-05-18T12:46:20.238Z,8.40
2018-05-18T12:48:47.785Z,8.57
2018-05-18T12:51:15.983Z,6.80
2018-05-18T12:53:43.538Z,6.50
2018-05-18T12:56:11.115Z,7.63
2018-05-18T12:58:38.703Z,7.43
2018-05-18T13:01:06.987Z,7.20
2018-05-18T13:03:35.193Z,6.67
2018-05-18T13:06:02.813Z,7.00
2018-05-18T13:08:30.379Z,7.60
2018-05-18T13:10:58.686Z,7.27
2018-05-18T13:13:27.493Z,7.17
2018-05-18T13:15:55.043Z,7.77
2018-05-18T13:18:23.311Z,7.80
2018-05-18T13:20:51.587Z,8.07
2018-05-18T13:23:19.843Z,7.13
2018-05-18T13:25:47.430Z,7.57
2018-05-18T13:28:15.705Z,7.10
2018-05-18T13:30:43.283Z,7.20
2018-05-18T13:33:12.492Z,6.87
2018-05-18T13:35:40.021Z,6.93
2018-05-18T13:38:09.049Z,5.93
2018-05-18T13:40:36.562Z,8.00
2018-05-18T13:43:04.141Z,7.40
2018-05-18T13:45:31.672Z,6.80
2018-05-18T13:47:59.218Z,7.20
2018-05-18T13:50:27.459Z,6.93
2018-05-18T13:52:54.957Z,6.80
2018-05-18T13:55:23.070Z,6.73
2018-05-18T13:57:50.588Z,8.03
2018-05-18T14:00:19.712Z,6.50
2018-05-18T14:02:47.773Z,7.30
2018-05-18T14:05:15.345Z,6.70
2018-05-18T14:07:42.896Z,6.67
2018-05-18T14:10:10.951Z,6.20
2018-05-18T14:12:39.236Z,6.40
2018-05-18T14:15:07.519Z,6.43
2018-05-18T14:17:35.829Z,6.63
2018-05-18T14:20:03.389Z,6.50
2018-05-18T14:22:30.992Z,7.60
2018-05-18T14:24:59.353Z,7.37
2018-05-18T14:27:26.905Z,8.10
2018-05-18T14:29:54.472Z,7.40
2018-05-18T14:32:22.761Z,7.53
2018-05-18T14:34:50.820Z,7.50
2018-05-18T14:37:18.489Z,7.60
2018-05-18T14:39:46.449Z,7.53
2018-05-18T14:42:15.109Z,7.80
2018-05-18T14:44:42.613Z,7.13
2018-05-18T14:47:10.290Z,7.60
2018-05-18T14:49:37.793Z,7.93
2018-05-18T14:52:05.423Z,7.90
2018-05-18T14:54:32.935Z,8.23
2018-05-18T14:57:00.472Z,7.60
2018-05-18T14:59:28.749Z,8.73
2018-05-18T15:01:56.869Z,8.10
2018-05-18T15:04:25.539Z,13.17
2018-05-18T15:06:53.901Z,8.50
2018-05-18T15:09:21.545Z,8.00
2018-05-18T15:11:49.306Z,7.97
2018-05-18T15:14:16.865Z,8.40
2018-05-18T15:16:44.426Z,7.80
2018-05-18T15:19:11.950Z,8.80
2018-05-18T15:21:39.568Z,8.80
2018-05-18T15:24:07.085Z,8.20
2018-05-18T15:26:34.598Z,7.80
2018-05-18T15:29:02.120Z,8.53
2018-05-18T15:31:30.458Z,8.90
2018-05-18T15:33:58.022Z,8.20
2018-05-18T15:36:25.594Z,7.60
2018-05-18T15:38:53.083Z,7.27
2018-05-18T15:41:20.592Z,8.23
2018-05-18T15:43:48.877Z,8.37
2018-05-18T15:46:17.072Z,8.10
2018-05-18T15:48:44.626Z,9.57
2018-05-18T15:51:12.162Z,7.43
2018-05-18T15:53:40.667Z,8.30
2018-05-18T15:56:08.191Z,8.10
2018-05-18T15:58:36.503Z,7.97
2018-05-18T16:01:04.003Z,9.00
2018-05-18T16:03:31.525Z,8.70
2018-05-18T16:05:59.035Z,8.57
2018-05-18T16:08:26.717Z,8.17
2018-05-18T16:10:54.649Z,8.20
2018-05-18T16:13:22.176Z,8.20
2018-05-18T16:15:50.464Z,8.27
2018-05-18T16:18:18.453Z,9.10
2018-05-18T16:20:45.969Z,6.90
2018-05-18T16:23:15.035Z,8.13
2018-05-18T16:25:42.942Z,8.07
2018-05-18T16:28:10.568Z,7.37
2018-05-18T16:30:38.139Z,7.17
2018-05-18T16:33:05.645Z,8.00
2018-05-18T16:35:33.921Z,8.00
2018-05-18T16:38:01.535Z,8.80
2018-05-18T16:40:29.055Z,7.57
2018-05-18T16:42:56.661Z,7.80
2018-05-18T16:45:24.158Z,7.40
2018-05-18T16:47:51.822Z,8.47
2018-05-18T16:50:19.349Z,7.37
2018-05-18T16:52:47.060Z,7.03
2018-05-18T16:55:15.907Z,7.50
2018-05-18T16:57:44.209Z,8.10
2018-05-18T17:00:12.388Z,7.60
2018-05-18T17:02:39.908Z,6.97
2018-05-18T17:05:08.345Z,7.70
2018-05-18T17:07:36.291Z,8.70
2018-05-18T17:10:03.777Z,7.13
2018-05-18T17:12:31.390Z,8.37
2018-05-18T17:14:59.127Z,7.80
2018-05-18T17:17:26.672Z,7.07
2018-05-18T17:19:54.248Z,9.07
2018-05-18T17:22:21.790Z,7.20
2018-05-18T17:24:49.286Z,7.73
2018-05-18T17:27:17.531Z,6.17
2018-05-18T17:29:45.697Z,6.97
2018-05-18T17:32:13.979Z,6.67
2018-05-18T17:34:42.707Z,7.67
2018-05-18T17:37:10.217Z,7.37
2018-05-18T17:39:39.015Z,8.73
2018-05-18T17:42:07.407Z,6.57
2018-05-18T17:44:35.516Z,7.00
2018-05-18T17:47:03.058Z,8.63
2018-05-18T17:49:30.580Z,7.10
2018-05-18T17:51:58.094Z,7.43
2018-05-18T17:54:25.737Z,7.10
2018-05-18T17:56:53.323Z,7.47
2018-05-18T17:59:20.860Z,6.70
2018-05-18T18:01:49.196Z,7.20
2018-05-18T18:04:16.779Z,7.13
2018-05-18T18:06:44.310Z,7.23
2018-05-18T18:09:12.959Z,6.97
2018-05-18T18:11:40.621Z,7.10
2018-05-18T18:14:08.247Z,7.10
2018-05-18T18:16:36.894Z,7.10
2018-05-18T18:19:05.295Z,8.30
2018-05-18T18:21:32.812Z,8.30
2018-05-18T18:24:00.372Z,7.37
2018-05-18T18:26:28.727Z,7.63
2018-05-18T18:28:56.356Z,8.40
2018-05-18T18:31:23.952Z,7.70
2018-05-18T18:33:51.501Z,8.03
2018-05-18T18:36:19.224Z,8.07
2018-05-18T18:38:46.881Z,8.17
2018-05-18T18:41:14.443Z,8.47
2018-05-18T18:43:42.077Z,7.60
2018-05-18T18:46:09.634Z,8.90
2018-05-18T18:48:37.298Z,8.43
2018-05-18T18:51:04.838Z,8.83
2018-05-18T18:53:33.137Z,9.43
2018-05-18T18:56:00.800Z,9.43
2018-05-18T18:58:28.353Z,8.57
2018-05-18T19:00:56.650Z,8.90
2018-05-18T19:03:24.171Z,7.80
2018-05-18T19:05:52.502Z,8.60
2018-05-18T19:08:20.108Z,7.87
2018-05-18T19:10:47.727Z,7.53
2018-05-18T19:13:15.224Z,9.20
2018-05-18T19:15:43.263Z,8.53
2018-05-18T19:18:10.902Z,9.37
2018-05-18T19:20:39.195Z,8.50
2018-05-18T19:23:06.703Z,8.27
2018-05-18T19:25:34.250Z,8.10
2018-05-18T19:28:01.804Z,8.37
2018-05-18T19:30:30.216Z,7.60
2018-05-18T19:32:57.808Z,8.37
2018-05-18T19:35:25.999Z,10.87
2018-05-18T19:37:53.515Z,9.03
2018-05-18T19:40:21.030Z,8.27
2018-05-18T19:42:49.289Z,8.80
2018-05-18T19:45:16.818Z,9.07
2018-05-18T19:47:44.343Z,10.53
2018-05-18T19:50:12.800Z,9.00
2018-05-18T19:52:40.316Z,8.73
2018-05-18T19:55:08.358Z,9.73
2018-05-18T19:57:35.959Z,8.70
2018-05-18T20:00:03.463Z,8.90
2018-05-18T20:02:31.288Z,9.27
2018-05-18T20:04:58.828Z,9.60
2018-05-18T20:07:27.094Z,9.37
2018-05-18T20:09:54.619Z,9.60
2018-05-18T20:12:23.199Z,8.77
2018-05-18T20:14:50.603Z,9.70
2018-05-18T20:17:18.910Z,10.70
2018-05-18T20:19:47.216Z,8.60
2018-05-18T20:22:15.451Z,9.80
2018-05-18T20:24:42.981Z,10.57
2018-05-18T20:27:10.508Z,9.07
2018-05-18T20:29:38.063Z,9.53
2018-05-18T20:32:06.236Z,9.70
2018-05-18T20:34:34.509Z,9.90
2018-05-18T20:37:02.759Z,10.53
2018-05-18T20:39:31.181Z,12.57
2018-05-18T20:41:59.718Z,12.27
2018-05-18T20:44:28.612Z,12.30
2018-05-18T20:46:56.351Z,10.40
2018-05-18T20:49:24.178Z,12.80
2018-05-18T20:51:52.396Z,11.63
2018-05-18T20:54:19.951Z,13.20
2018-05-18T20:56:47.606Z,13.20
2018-05-18T20:59:15.933Z,11.03
2018-05-18T21:01:43.419Z,11.37
2018-05-18T21:04:11.042Z,10.37
2018-05-18T21:06:38.567Z,10.60
2018-05-18T21:09:06.171Z,11.13
2018-05-18T21:11:33.973Z,11.20
2018-05-18T21:14:01.517Z,10.57
2018-05-18T21:16:29.375Z,11.93
2018-05-18T21:18:56.918Z,11.10
2018-05-18T21:21:25.213Z,11.50
2018-05-18T21:23:52.742Z,11.97
2018-05-18T21:26:20.355Z,12.30
2018-05-18T21:28:47.863Z,10.13
2018-05-18T21:31:15.377Z,11.63
2018-05-18T21:33:42.887Z,14.20
2018-05-18T21:36:10.643Z,14.20
2018-05-18T21:38:38.147Z,13.17
2018-05-18T21:41:06.427Z,12.73
2018-05-18T21:43:36.210Z,13.67
2018-05-18T21:46:03.725Z,12.27
2018-05-18T21:48:31.233Z,12.97
2018-05-18T21:50:59.346Z,12.80
2018-05-18T21:53:27.605Z,13.00
2018-05-18T21:55:55.870Z,13.50
2018-05-18T21:58:24.194Z,13.30
2018-05-18T22:00:53.389Z,11.63
2018-05-18T22:03:21.665Z,12.23
2018-05-18T22:05:50.668Z,12.50
2018-05-18T22:08:18.987Z,13.93
2018-05-18T22:10:46.644Z,12.17
2018-05-18T22:13:14.152Z,12.67
2018-05-18T22:15:41.635Z,12.83
2018-05-18T22:18:09.927Z,14.47
2018-05-18T22:20:39.459Z,13.07
2018-05-18T22:23:07.859Z,12.23
2018-05-18T22:25:35.521Z,13.27
2018-05-18T22:28:03.032Z,12.40
2018-05-18T22:30:30.661Z,12.00
2018-05-18T22:32:58.189Z,13.70
2018-05-18T22:35:26.786Z,13.03
2018-05-18T22:37:55.077Z,13.70
2018-05-18T22:40:22.581Z,14.20
2018-05-18T22:42:50.869Z,13.00
2018-05-18T22:45:18.507Z,13.20
2018-05-18T22:47:47.135Z,13.00
2018-05-18T22:50:14.650Z,15.00
2018-05-18T22:52:42.997Z,14.17
2018-05-18T22:55:11.281Z,14.27
2018-05-18T22:57:39.645Z,14.30
2018-05-18T23:00:08.639Z,14.70
2018-05-18T23:02:36.224Z,13.77
2018-05-18T23:05:04.801Z,13.17
2018-05-18T23:07:33.519Z,13.63
2018-05-18T23:10:01.109Z,13.07
2018-05-18T23:12:28.619Z,13.40
2018-05-18T23:14:57.068Z,13.37
2018-05-18T23:17:24.587Z,15.00
2018-05-18T23:19:52.868Z,15.00
2018-05-18T23:22:20.428Z,14.93
2018-05-18T23:24:48.699Z,16.17
2018-05-18T23:27:17.434Z,15.53
2018-05-18T23:29:44.943Z,14.57
2018-05-18T23:32:13.817Z,15.17
2018-05-18T23:34:41.329Z,15.07
2018-05-18T23:37:08.869Z,17.07
2018-05-18T23:39:37.143Z,14.17
2018-05-18T23:42:04.635Z,15.67
2018-05-18T23:44:32.130Z,14.43
2018-05-18T23:46:59.658Z,16.63
2018-05-18T23:49:27.930Z,14.73
2018-05-18T23:51:56.257Z,15.83
2018-05-18T23:54:24.459Z,15.10
2018-05-18T23:56:52.178Z,15.37
2018-05-18T23:59:20.182Z,15.40
